createdAt,value
2022-12-15T00:00:19.591Z,-6.81
2022-12-15T00:01:19.438Z,-6.84
2022-12-15T00:02:19.594Z,-6.82
2022-12-15T00:03:19.457Z,-6.82
2022-12-15T00:04:19.458Z,-6.81
2022-12-15T00:05:19.396Z,-6.79
2022-12-15T00:06:19.407Z,-6.77
2022-12-15T00:07:19.404Z,-6.77
2022-12-15T00:08:19.368Z,-6.76
2022-12-15T00:09:20.701Z,-6.77
2022-12-15T00:10:19.374Z,-6.79
2022-12-15T00:11:19.337Z,-6.79
2022-12-15T00:12:19.325Z,-6.82
2022-12-15T00:13:19.321Z,-6.88
2022-12-15T00:14:19.326Z,-6.85
2022-12-15T00:15:19.297Z,-6.88
2022-12-15T00:16:19.440Z,-6.88
2022-12-15T00:17:19.275Z,-6.87
2022-12-15T00:18:19.265Z,-6.82
2022-12-15T00:19:19.285Z,-6.77
2022-12-15T00:20:19.264Z,-6.71
2022-12-15T00:21:19.237Z,-6.69
2022-12-15T00:22:19.229Z,-6.66
2022-12-15T00:23:19.214Z,-6.61
2022-12-15T00:24:19.226Z,-6.59
2022-12-15T00:25:19.195Z,-6.54
2022-12-15T00:26:19.177Z,-6.52
2022-12-15T00:27:19.172Z,-6.48
2022-12-15T00:28:19.163Z,-6.45
2022-12-15T00:29:19.153Z,-6.45
2022-12-15T00:30:19.167Z,-6.40
2022-12-15T00:31:19.149Z,-6.40
2022-12-15T00:32:19.134Z,-6.37
2022-12-15T00:33:19.116Z,-6.37
2022-12-15T00:34:19.095Z,-6.37
2022-12-15T00:35:19.122Z,-6.36
2022-12-15T00:36:19.074Z,-6.37
2022-12-15T00:37:19.065Z,-6.39
2022-12-15T00:38:19.061Z,-6.39
2022-12-15T00:39:19.050Z,-6.40
2022-12-15T00:40:19.034Z,-6.39
2022-12-15T00:41:19.057Z,-6.37
2022-12-15T00:42:19.014Z,-6.37
2022-12-15T00:43:19.021Z,-6.39
2022-12-15T00:44:20.706Z,-6.39
2022-12-15T00:45:19.011Z,-6.40
2022-12-15T00:46:19.016Z,-6.44
2022-12-15T00:47:18.961Z,-6.45
2022-12-15T00:48:18.952Z,-6.48
2022-12-15T00:49:18.951Z,-6.50
2022-12-15T00:50:18.961Z,-6.52
2022-12-15T00:51:18.929Z,-6.54
2022-12-15T00:52:18.943Z,-6.58
2022-12-15T00:53:18.903Z,-6.54
2022-12-15T00:54:18.898Z,-6.50
2022-12-15T00:55:18.883Z,-6.47
2022-12-15T00:56:18.891Z,-6.42
2022-12-15T00:57:18.870Z,-6.40
2022-12-15T00:58:18.862Z,-6.39
2022-12-15T00:59:18.848Z,-6.34
2022-12-15T01:00:18.857Z,-6.30
2022-12-15T01:01:18.845Z,-6.26
2022-12-15T01:02:19.033Z,-6.23
2022-12-15T01:03:18.953Z,-6.21
2022-12-15T01:04:18.850Z,-6.23
2022-12-15T01:05:18.780Z,-6.21
2022-12-15T01:06:18.790Z,-6.21
2022-12-15T01:07:18.762Z,-6.23
2022-12-15T01:08:18.756Z,-6.23
2022-12-15T01:09:18.749Z,-6.26
2022-12-15T01:10:18.733Z,-6.27
2022-12-15T01:11:18.747Z,-6.29
2022-12-15T01:12:18.710Z,-6.31
2022-12-15T01:13:18.703Z,-6.34
2022-12-15T01:14:18.688Z,-6.34
2022-12-15T01:15:18.677Z,-6.34
2022-12-15T01:16:18.744Z,-6.36
2022-12-15T01:17:18.665Z,-6.34
2022-12-15T01:18:18.648Z,-6.36
2022-12-15T01:19:18.646Z,-6.37
2022-12-15T01:20:18.709Z,-6.34
2022-12-15T01:21:21.948Z,-6.34
2022-12-15T01:22:19.608Z,-6.31
2022-12-15T01:23:18.598Z,-6.24
2022-12-15T01:24:18.588Z,-6.19
2022-12-15T01:25:18.603Z,-6.13
2022-12-15T01:26:18.587Z,-6.12
2022-12-15T01:27:18.579Z,-6.12
2022-12-15T01:28:18.538Z,-6.12
2022-12-15T01:29:18.548Z,-6.08
2022-12-15T01:30:18.527Z,-6.08
2022-12-15T01:31:18.610Z,-6.08
2022-12-15T01:32:18.525Z,-6.09
2022-12-15T01:33:18.486Z,-6.12
2022-12-15T01:34:18.487Z,-6.13
2022-12-15T01:35:18.470Z,-6.15
2022-12-15T01:36:18.463Z,-6.15
2022-12-15T01:37:18.467Z,-6.13
2022-12-15T01:38:18.444Z,-6.18
2022-12-15T01:39:18.434Z,-6.24
2022-12-15T01:40:18.416Z,-6.24
2022-12-15T01:41:18.418Z,-6.24
2022-12-15T01:42:18.436Z,-6.27
2022-12-15T01:43:18.395Z,-6.27
2022-12-15T01:44:18.384Z,-6.27
2022-12-15T01:45:18.376Z,-6.27
2022-12-15T01:46:18.420Z,-6.26
2022-12-15T01:47:18.343Z,-6.27
2022-12-15T01:48:18.361Z,-6.27
2022-12-15T01:49:18.343Z,-6.29
2022-12-15T01:50:18.313Z,-6.27
2022-12-15T01:51:18.314Z,-6.27
2022-12-15T01:52:18.295Z,-6.29
2022-12-15T01:53:18.320Z,-6.29
2022-12-15T01:54:18.283Z,-6.30
2022-12-15T01:55:18.266Z,-6.29
2022-12-15T01:56:18.253Z,-6.27
2022-12-15T01:57:18.251Z,-6.26
2022-12-15T01:58:18.244Z,-6.24
2022-12-15T01:59:18.242Z,-6.19
2022-12-15T02:00:18.216Z,-6.18
2022-12-15T02:01:18.314Z,-6.16
2022-12-15T02:02:18.304Z,-6.15
2022-12-15T02:03:18.228Z,-6.11
2022-12-15T02:04:18.202Z,-6.08
2022-12-15T02:05:18.173Z,-6.05
2022-12-15T02:06:18.153Z,-6.02
2022-12-15T02:07:18.141Z,-6.00
2022-12-15T02:08:18.131Z,-5.95
2022-12-15T02:09:18.152Z,-5.94
2022-12-15T02:10:18.112Z,-5.95
2022-12-15T02:11:18.098Z,-5.98
2022-12-15T02:12:18.092Z,-6.02
2022-12-15T02:13:18.081Z,-6.05
2022-12-15T02:14:18.075Z,-6.08
2022-12-15T02:15:18.103Z,-6.12
2022-12-15T02:16:18.092Z,-6.12
2022-12-15T02:17:18.043Z,-6.16
2022-12-15T02:18:18.030Z,-6.19
2022-12-15T02:19:18.020Z,-6.19
2022-12-15T02:20:18.010Z,-6.21
2022-12-15T02:21:18.021Z,-6.23
2022-12-15T02:22:17.990Z,-6.27
2022-12-15T02:23:17.982Z,-6.26
2022-12-15T02:24:17.994Z,-6.29
2022-12-15T02:25:17.960Z,-6.29
2022-12-15T02:26:17.949Z,-6.31
2022-12-15T02:27:17.949Z,-6.33
2022-12-15T02:28:17.928Z,-6.29
2022-12-15T02:29:17.937Z,-6.29
2022-12-15T02:30:17.912Z,-6.30
2022-12-15T02:31:17.953Z,-6.27
2022-12-15T02:32:17.885Z,-6.29
2022-12-15T02:33:17.880Z,-6.31
2022-12-15T02:34:17.888Z,-6.30
2022-12-15T02:35:17.859Z,-6.30
2022-12-15T02:36:17.840Z,-6.29
2022-12-15T02:37:17.830Z,-6.30
2022-12-15T02:38:17.818Z,-6.29
2022-12-15T02:39:17.810Z,-6.27
2022-12-15T02:40:17.827Z,-6.27
2022-12-15T02:41:17.789Z,-6.19
2022-12-15T02:42:17.778Z,-6.15
2022-12-15T02:43:17.769Z,-6.08
2022-12-15T02:44:17.760Z,-6.05
2022-12-15T02:45:17.759Z,-6.01
2022-12-15T02:46:17.838Z,-5.98
2022-12-15T02:47:17.737Z,-5.95
2022-12-15T02:48:17.718Z,-5.92
2022-12-15T02:49:17.709Z,-5.90
2022-12-15T02:50:17.697Z,-5.83
2022-12-15T02:51:17.714Z,-5.79
2022-12-15T02:52:17.677Z,-5.77
2022-12-15T02:53:17.667Z,-5.76
2022-12-15T02:54:17.656Z,-5.74
2022-12-15T02:55:17.655Z,-5.74
2022-12-15T02:56:17.668Z,-5.70
2022-12-15T02:57:17.635Z,-5.70
2022-12-15T02:58:17.624Z,-5.69
2022-12-15T02:59:17.607Z,-5.72
2022-12-15T03:00:17.601Z,-5.76
2022-12-15T03:01:17.675Z,-5.73
2022-12-15T03:02:17.707Z,-5.74
2022-12-15T03:03:17.597Z,-5.80
2022-12-15T03:04:17.565Z,-5.87
2022-12-15T03:05:17.637Z,-5.91
2022-12-15T03:06:17.536Z,-5.88
2022-12-15T03:07:17.555Z,-5.84
2022-12-15T03:08:17.522Z,-5.82
2022-12-15T03:09:17.505Z,-5.77
2022-12-15T03:10:17.492Z,-5.73
2022-12-15T03:11:17.486Z,-5.70
2022-12-15T03:12:17.474Z,-5.69
2022-12-15T03:13:17.474Z,-5.70
2022-12-15T03:14:17.454Z,-5.67
2022-12-15T03:15:17.443Z,-5.65
2022-12-15T03:16:17.540Z,-5.67
2022-12-15T03:17:17.424Z,-5.65
2022-12-15T03:18:17.443Z,-5.72
2022-12-15T03:19:17.403Z,-5.73
2022-12-15T03:20:17.392Z,-5.77
2022-12-15T03:21:17.376Z,-5.83
2022-12-15T03:22:17.370Z,-5.84
2022-12-15T03:23:17.363Z,-5.84
2022-12-15T03:24:17.372Z,-5.87
2022-12-15T03:25:17.334Z,-5.91
2022-12-15T03:26:17.333Z,-5.92
2022-12-15T03:27:17.313Z,-5.92
2022-12-15T03:28:17.316Z,-5.90
2022-12-15T03:29:17.324Z,-5.94
2022-12-15T03:30:17.291Z,-5.95
2022-12-15T03:31:17.313Z,-5.98
2022-12-15T03:32:17.301Z,-6.00
2022-12-15T03:33:17.253Z,-5.98
2022-12-15T03:34:17.251Z,-5.95
2022-12-15T03:35:17.264Z,-5.91
2022-12-15T03:36:17.253Z,-5.87
2022-12-15T03:37:17.219Z,-5.83
2022-12-15T03:38:17.220Z,-5.83
2022-12-15T03:39:17.202Z,-5.80
2022-12-15T03:40:17.213Z,-5.73
2022-12-15T03:41:17.174Z,-5.70
2022-12-15T03:42:17.170Z,-5.70
2022-12-15T03:43:17.150Z,-5.70
2022-12-15T03:44:17.141Z,-5.73
2022-12-15T03:45:17.130Z,-5.77
2022-12-15T03:46:17.253Z,-5.80
2022-12-15T03:47:17.113Z,-5.80
2022-12-15T03:48:17.102Z,-5.79
2022-12-15T03:49:17.100Z,-5.77
2022-12-15T03:50:17.184Z,-5.79
2022-12-15T03:51:17.069Z,-5.76
2022-12-15T03:52:17.063Z,-5.73
2022-12-15T03:53:17.049Z,-5.70
2022-12-15T03:54:17.039Z,-5.70
2022-12-15T03:55:17.051Z,-5.69
2022-12-15T03:56:17.019Z,-5.70
2022-12-15T03:57:17.029Z,-5.67
2022-12-15T03:58:17.001Z,-5.63
2022-12-15T03:59:16.998Z,-5.62
2022-12-15T04:00:16.987Z,-5.63
2022-12-15T04:01:17.079Z,-5.67
2022-12-15T04:02:17.218Z,-5.70
2022-12-15T04:03:16.971Z,-5.70
2022-12-15T04:04:16.937Z,-5.72
2022-12-15T04:05:16.948Z,-5.74
2022-12-15T04:06:16.908Z,-5.74
2022-12-15T04:07:16.909Z,-5.70
2022-12-15T04:08:16.889Z,-5.67
2022-12-15T04:09:16.889Z,-5.65
2022-12-15T04:10:16.877Z,-5.67
2022-12-15T04:11:16.888Z,-5.65
2022-12-15T04:12:16.867Z,-5.67
2022-12-15T04:13:16.846Z,-5.65
2022-12-15T04:14:16.836Z,-5.63
2022-12-15T04:15:16.822Z,-5.70
2022-12-15T04:16:20.083Z,-5.67
2022-12-15T04:17:16.907Z,-5.65
2022-12-15T04:18:16.792Z,-5.63
2022-12-15T04:19:16.787Z,-5.61
2022-12-15T04:20:16.787Z,-5.62
2022-12-15T04:21:16.757Z,-5.61
2022-12-15T04:22:18.180Z,-5.62
2022-12-15T04:23:16.736Z,-5.62
2022-12-15T04:24:16.736Z,-5.62
2022-12-15T04:25:16.715Z,-5.65
2022-12-15T04:26:16.726Z,-5.67
2022-12-15T04:27:16.694Z,-5.62
2022-12-15T04:28:16.687Z,-5.63
2022-12-15T04:29:16.675Z,-5.62
2022-12-15T04:30:16.676Z,-5.65
2022-12-15T04:31:16.701Z,-5.67
2022-12-15T04:32:16.658Z,-5.67
2022-12-15T04:33:16.638Z,-5.73
2022-12-15T04:34:16.633Z,-5.72
2022-12-15T04:35:16.614Z,-5.72
2022-12-15T04:36:16.613Z,-5.76
2022-12-15T04:37:16.615Z,-5.77
2022-12-15T04:38:16.582Z,-5.77
2022-12-15T04:39:16.576Z,-5.74
2022-12-15T04:40:16.564Z,-5.74
2022-12-15T04:41:16.557Z,-5.74
2022-12-15T04:42:16.564Z,-5.76
2022-12-15T04:43:16.543Z,-5.77
2022-12-15T04:44:16.524Z,-5.79
2022-12-15T04:45:20.493Z,-5.82
2022-12-15T04:46:16.593Z,-5.80
2022-12-15T04:47:16.522Z,-5.84
2022-12-15T04:48:16.474Z,-5.87
2022-12-15T04:49:16.474Z,-5.91
2022-12-15T04:50:16.453Z,-5.97
2022-12-15T04:51:16.450Z,-6.02
2022-12-15T04:52:16.442Z,-6.08
2022-12-15T04:53:16.452Z,-6.09
2022-12-15T04:54:16.421Z,-6.15
2022-12-15T04:55:16.413Z,-6.13
2022-12-15T04:56:18.614Z,-6.13
2022-12-15T04:57:16.412Z,-6.16
2022-12-15T04:58:16.376Z,-6.16
2022-12-15T04:59:16.375Z,-6.19
2022-12-15T05:00:16.357Z,-6.24
2022-12-15T05:01:16.439Z,-6.23
2022-12-15T05:02:16.447Z,-6.23
2022-12-15T05:03:18.584Z,-6.24
2022-12-15T05:04:16.393Z,-6.26
2022-12-15T05:05:16.379Z,-6.29
2022-12-15T05:06:16.294Z,-6.31
2022-12-15T05:07:16.284Z,-6.30
2022-12-15T05:08:16.301Z,-6.31
2022-12-15T05:09:16.278Z,-6.29
2022-12-15T05:10:16.249Z,-6.27
2022-12-15T05:11:16.241Z,-6.24
2022-12-15T05:12:16.257Z,-6.26
2022-12-15T05:13:16.221Z,-6.26
2022-12-15T05:14:16.212Z,-6.30
2022-12-15T05:15:16.198Z,-6.33
2022-12-15T05:16:16.246Z,-6.36
2022-12-15T05:17:16.293Z,-6.33
2022-12-15T05:18:16.321Z,-6.37
2022-12-15T05:19:16.173Z,-6.42
2022-12-15T05:20:16.153Z,-6.45
2022-12-15T05:21:16.141Z,-6.47
2022-12-15T05:22:16.156Z,-6.50
2022-12-15T05:23:16.130Z,-6.48
2022-12-15T05:24:16.110Z,-6.48
2022-12-15T05:25:16.097Z,-6.47
2022-12-15T05:26:16.088Z,-6.45
2022-12-15T05:27:16.099Z,-6.42
2022-12-15T05:28:16.067Z,-6.39
2022-12-15T05:29:16.078Z,-6.36
2022-12-15T05:30:16.147Z,-6.31
2022-12-15T05:31:16.076Z,-6.30
2022-12-15T05:32:16.041Z,-6.26
2022-12-15T05:33:16.049Z,-6.27
2022-12-15T05:34:16.008Z,-6.27
2022-12-15T05:35:16.027Z,-6.27
2022-12-15T05:36:15.986Z,-6.27
2022-12-15T05:37:15.980Z,-6.30
2022-12-15T05:38:15.976Z,-6.33
2022-12-15T05:39:15.968Z,-6.31
2022-12-15T05:40:15.946Z,-6.33
2022-12-15T05:41:15.967Z,-6.31
2022-12-15T05:42:15.924Z,-6.34
2022-12-15T05:43:15.917Z,-6.37
2022-12-15T05:44:15.907Z,-6.37
2022-12-15T05:45:15.896Z,-6.44
2022-12-15T05:46:15.931Z,-6.48
2022-12-15T05:47:15.898Z,-6.50
2022-12-15T05:48:15.862Z,-6.50
2022-12-15T05:49:15.867Z,-6.50
2022-12-15T05:50:15.841Z,-6.50
2022-12-15T05:51:15.836Z,-6.51
2022-12-15T05:52:15.817Z,-6.50
2022-12-15T05:53:15.834Z,-6.52
2022-12-15T05:54:15.794Z,-6.51
2022-12-15T05:55:15.796Z,-6.51
2022-12-15T05:56:15.785Z,-6.54
2022-12-15T05:57:15.766Z,-6.54
2022-12-15T05:58:15.781Z,-6.52
2022-12-15T05:59:15.783Z,-6.48
2022-12-15T06:00:15.734Z,-6.42
2022-12-15T06:01:15.731Z,-6.40
2022-12-15T06:02:15.897Z,-6.34
2022-12-15T06:03:15.800Z,-6.24
2022-12-15T06:04:15.749Z,-6.23
2022-12-15T06:05:15.683Z,-6.24
2022-12-15T06:06:15.673Z,-6.21
2022-12-15T06:07:15.663Z,-6.21
2022-12-15T06:08:15.653Z,-6.19
2022-12-15T06:09:15.674Z,-6.16
2022-12-15T06:10:15.633Z,-6.15
2022-12-15T06:11:15.623Z,-6.12
2022-12-15T06:12:15.612Z,-6.12
2022-12-15T06:13:15.622Z,-6.06
2022-12-15T06:14:15.619Z,-6.09
2022-12-15T06:15:15.610Z,-6.11
2022-12-15T06:16:15.617Z,-6.09
2022-12-15T06:17:15.564Z,-6.08
2022-12-15T06:18:15.552Z,-6.08
2022-12-15T06:19:15.555Z,-6.05
2022-12-15T06:20:15.534Z,-6.01
2022-12-15T06:21:15.556Z,-5.97
2022-12-15T06:22:15.519Z,-5.92
2022-12-15T06:23:15.503Z,-5.91
2022-12-15T06:24:15.489Z,-5.83
2022-12-15T06:25:15.482Z,-5.87
2022-12-15T06:26:15.490Z,-5.79
2022-12-15T06:27:15.463Z,-5.70
2022-12-15T06:28:15.452Z,-5.72
2022-12-15T06:29:15.478Z,-5.76
2022-12-15T06:30:15.432Z,-5.77
2022-12-15T06:31:15.440Z,-5.82
2022-12-15T06:32:15.410Z,-5.84
2022-12-15T06:33:15.413Z,-5.87
2022-12-15T06:34:15.411Z,-5.87
2022-12-15T06:35:15.380Z,-5.88
2022-12-15T06:36:15.382Z,-5.90
2022-12-15T06:37:15.358Z,-5.95
2022-12-15T06:38:15.369Z,-5.97
2022-12-15T06:39:15.340Z,-5.97
2022-12-15T06:40:15.328Z,-5.97
2022-12-15T06:41:15.319Z,-5.97
2022-12-15T06:42:15.300Z,-5.97
2022-12-15T06:43:15.297Z,-5.95
2022-12-15T06:44:15.309Z,-5.90
2022-12-15T06:45:15.278Z,-5.84
2022-12-15T06:46:15.312Z,-5.87
2022-12-15T06:47:15.271Z,-5.88
2022-12-15T06:48:15.250Z,-5.87
2022-12-15T06:49:15.262Z,-5.91
2022-12-15T06:50:15.235Z,-5.92
2022-12-15T06:51:17.395Z,-5.92
2022-12-15T06:52:15.199Z,-5.95
2022-12-15T06:53:15.200Z,-5.97
2022-12-15T06:54:15.186Z,-5.98
2022-12-15T06:55:15.189Z,-5.98
2022-12-15T06:56:15.166Z,-5.95
2022-12-15T06:57:15.177Z,-5.91
2022-12-15T06:58:15.146Z,-5.92
2022-12-15T06:59:15.148Z,-5.94
2022-12-15T07:00:15.123Z,-5.84
2022-12-15T07:01:15.250Z,-5.83
2022-12-15T07:02:15.244Z,-5.88
2022-12-15T07:03:15.297Z,-5.88
2022-12-15T07:04:15.206Z,-5.90
2022-12-15T07:05:15.067Z,-5.87
2022-12-15T07:06:15.066Z,-5.88
2022-12-15T07:07:15.077Z,-5.87
2022-12-15T07:08:15.064Z,-5.90
2022-12-15T07:09:15.036Z,-5.90
2022-12-15T07:10:15.020Z,-5.91
2022-12-15T07:11:15.007Z,-5.92
2022-12-15T07:12:15.015Z,-5.88
2022-12-15T07:13:14.985Z,-5.92
2022-12-15T07:14:14.985Z,-5.92
2022-12-15T07:15:14.966Z,-5.91
2022-12-15T07:16:15.027Z,-5.84
2022-12-15T07:17:14.975Z,-5.82
2022-12-15T07:18:14.935Z,-5.80
2022-12-15T07:19:14.936Z,-5.79
2022-12-15T07:20:14.923Z,-5.76
2022-12-15T07:21:14.907Z,-5.73
2022-12-15T07:22:14.884Z,-5.76
2022-12-15T07:23:14.903Z,-5.77
2022-12-15T07:24:14.873Z,-5.79
2022-12-15T07:25:14.855Z,-5.80
2022-12-15T07:26:14.862Z,-5.79
2022-12-15T07:27:14.866Z,-5.80
2022-12-15T07:28:14.845Z,-5.79
2022-12-15T07:29:19.523Z,-5.76
2022-12-15T07:30:15.843Z,-5.74
2022-12-15T07:31:14.827Z,-5.72
2022-12-15T07:32:14.793Z,-5.73
2022-12-15T07:33:14.785Z,-5.70
2022-12-15T07:34:14.804Z,-5.70
2022-12-15T07:35:14.763Z,-5.72
2022-12-15T07:36:14.755Z,-5.70
2022-12-15T07:37:14.740Z,-5.70
2022-12-15T07:38:14.732Z,-5.69
2022-12-15T07:39:14.744Z,-5.65
2022-12-15T07:40:14.705Z,-5.63
2022-12-15T07:41:14.723Z,-5.62
2022-12-15T07:42:14.695Z,-5.62
2022-12-15T07:43:14.674Z,-5.59
2022-12-15T07:44:14.805Z,-5.58
2022-12-15T07:45:14.684Z,-5.52
2022-12-15T07:46:14.700Z,-5.55
2022-12-15T07:47:14.632Z,-5.55
2022-12-15T07:48:14.622Z,-5.58
2022-12-15T07:49:14.641Z,-5.58
2022-12-15T07:50:14.612Z,-5.62
2022-12-15T07:51:19.448Z,-5.62
2022-12-15T07:52:15.591Z,-5.62
2022-12-15T07:53:14.578Z,-5.67
2022-12-15T07:54:14.592Z,-5.63
2022-12-15T07:55:14.549Z,-5.65
2022-12-15T07:56:14.547Z,-5.62
2022-12-15T07:57:14.530Z,-5.65
2022-12-15T07:58:14.519Z,-5.65
2022-12-15T07:59:14.534Z,-5.65
2022-12-15T08:00:14.501Z,-5.61
2022-12-15T08:01:14.591Z,-5.61
2022-12-15T08:02:14.738Z,-5.56
2022-12-15T08:03:14.601Z,-5.55
2022-12-15T08:04:14.480Z,-5.51
2022-12-15T08:05:14.464Z,-5.47
2022-12-15T08:06:14.436Z,-5.45
2022-12-15T08:07:14.429Z,-5.40
2022-12-15T08:08:15.576Z,-5.38
2022-12-15T08:09:14.421Z,-5.34
2022-12-15T08:10:14.397Z,-5.26
2022-12-15T08:11:14.393Z,-5.20
2022-12-15T08:12:14.387Z,-5.17
2022-12-15T08:13:31.379Z,-5.08
2022-12-15T08:14:18.107Z,-5.04
2022-12-15T08:15:14.345Z,-5.03
2022-12-15T08:16:14.489Z,-5.03
2022-12-15T08:17:14.321Z,-5.03
2022-12-15T08:18:14.338Z,-5.00
2022-12-15T08:19:14.310Z,-4.98
2022-12-15T08:20:14.295Z,-4.95
2022-12-15T08:21:14.347Z,-4.91
2022-12-15T08:22:14.269Z,-4.86
2022-12-15T08:23:14.345Z,-4.85
2022-12-15T08:24:14.279Z,-4.77
2022-12-15T08:25:14.237Z,-4.68
2022-12-15T08:26:14.238Z,-4.62
2022-12-15T08:27:14.225Z,-4.59
2022-12-15T08:28:21.997Z,-4.58
2022-12-15T08:30:15.187Z,-4.55
2022-12-15T08:31:14.330Z,-4.55
2022-12-15T08:32:14.238Z,-4.54
2022-12-15T08:33:14.160Z,-4.54
2022-12-15T08:34:14.182Z,-4.55
2022-12-15T08:35:38.971Z,-4.50
2022-12-15T08:36:15.127Z,-4.50
2022-12-15T08:37:14.157Z,-4.47
2022-12-15T08:38:14.108Z,-4.44
2022-12-15T08:39:14.090Z,-4.40
2022-12-15T08:40:14.109Z,-4.36
2022-12-15T08:41:14.075Z,-4.29
2022-12-15T08:42:14.086Z,-4.23
2022-12-15T08:43:14.066Z,-4.18
2022-12-15T08:44:14.047Z,-4.07
2022-12-15T08:45:14.035Z,-3.98
2022-12-15T08:46:14.065Z,-3.89
2022-12-15T08:47:14.013Z,-3.81
2022-12-15T08:48:14.013Z,-3.68
2022-12-15T08:49:19.623Z,-3.56
2022-12-15T08:50:14.977Z,-3.44
2022-12-15T08:51:13.974Z,-3.33
2022-12-15T08:52:13.987Z,-3.20
2022-12-15T08:53:30.843Z,-3.08
2022-12-15T08:54:14.958Z,-2.97
2022-12-15T08:55:16.766Z,-2.85
2022-12-15T08:56:14.918Z,-2.72
2022-12-15T08:57:13.928Z,-2.58
2022-12-15T08:58:13.905Z,-2.47
2022-12-15T08:59:13.896Z,-2.32
2022-12-15T09:00:13.875Z,-2.18
2022-12-15T09:01:18.891Z,-2.03
2022-12-15T09:02:14.938Z,-1.92
2022-12-15T09:03:13.849Z,-1.78
2022-12-15T09:04:13.933Z,-1.64
2022-12-15T09:05:13.826Z,-1.54
2022-12-15T09:06:13.844Z,-1.41
2022-12-15T09:07:13.824Z,-1.27
2022-12-15T09:08:13.795Z,-1.15
2022-12-15T09:09:13.814Z,-1.02
2022-12-15T09:10:13.773Z,-0.89
2022-12-15T09:11:13.754Z,-0.75
2022-12-15T09:12:13.752Z,-0.68
2022-12-15T09:13:13.735Z,-0.63
2022-12-15T09:14:13.734Z,-0.50
2022-12-15T09:15:13.740Z,-0.41
2022-12-15T09:16:13.789Z,-0.30
2022-12-15T09:17:13.797Z,-0.23
2022-12-15T09:18:13.701Z,-0.13
2022-12-15T09:19:13.707Z,-0.04
2022-12-15T09:20:17.654Z,0.06
2022-12-15T09:21:13.655Z,0.15
2022-12-15T09:22:13.652Z,0.23
2022-12-15T09:23:13.654Z,0.36
2022-12-15T09:24:19.800Z,0.48
2022-12-15T09:25:14.613Z,0.64
2022-12-15T09:26:13.623Z,0.71
2022-12-15T09:27:13.601Z,0.88
2022-12-15T09:28:13.595Z,0.98
2022-12-15T09:29:13.581Z,1.10
2022-12-15T09:30:13.595Z,1.24
2022-12-15T09:31:13.597Z,1.39
2022-12-15T09:32:14.441Z,1.50
2022-12-15T09:33:13.532Z,1.57
2022-12-15T09:34:13.532Z,1.73
2022-12-15T09:35:13.515Z,1.83
2022-12-15T09:36:13.524Z,1.98
2022-12-15T09:37:13.494Z,2.10
2022-12-15T09:38:13.512Z,2.12
2022-12-15T09:39:13.505Z,2.23
2022-12-15T09:40:13.466Z,2.34
2022-12-15T09:41:13.457Z,2.46
2022-12-15T09:42:13.453Z,2.55
2022-12-15T09:43:33.946Z,2.69
2022-12-15T09:44:14.433Z,2.84
2022-12-15T09:45:13.427Z,2.88
2022-12-15T09:46:13.455Z,2.97
2022-12-15T09:47:13.413Z,3.00
2022-12-15T09:48:13.375Z,2.87
2022-12-15T09:49:13.372Z,2.33
2022-12-15T09:50:13.354Z,1.80
2022-12-15T09:51:13.343Z,1.44
2022-12-15T09:52:13.329Z,1.03
2022-12-15T09:53:36.742Z,0.67
2022-12-15T09:54:15.123Z,0.34
2022-12-15T09:55:13.370Z,0.07
2022-12-15T09:56:13.283Z,-0.12
2022-12-15T09:57:13.280Z,-0.27
2022-12-15T09:58:13.267Z,-0.41
2022-12-15T09:59:13.285Z,-0.59
2022-12-15T10:00:13.261Z,-0.62
2022-12-15T10:01:13.232Z,-0.66
2022-12-15T10:02:13.328Z,-0.72
2022-12-15T10:03:13.407Z,-0.75
2022-12-15T10:04:13.311Z,-0.78
2022-12-15T10:05:13.198Z,-0.80
2022-12-15T10:06:18.289Z,-0.84
2022-12-15T10:07:14.170Z,-0.89
2022-12-15T10:08:13.151Z,-0.94
2022-12-15T10:09:13.153Z,-0.92
2022-12-15T10:10:13.150Z,-0.89
2022-12-15T10:11:13.150Z,-0.92
2022-12-15T10:12:13.113Z,-0.89
2022-12-15T10:13:13.110Z,-0.89
2022-12-15T10:14:13.100Z,-0.91
2022-12-15T10:15:13.084Z,-0.97
2022-12-15T10:16:13.124Z,-0.94
2022-12-15T10:17:13.054Z,-0.94
2022-12-15T10:18:13.148Z,-0.92
2022-12-15T10:19:13.029Z,-0.81
2022-12-15T10:20:13.019Z,-0.65
2022-12-15T10:21:13.022Z,-0.33
2022-12-15T10:22:13.029Z,0.06
2022-12-15T10:23:13.080Z,0.75
2022-12-15T10:24:12.984Z,1.37
2022-12-15T10:25:12.979Z,1.80
2022-12-15T10:26:12.962Z,2.10
2022-12-15T10:27:12.951Z,2.30
2022-12-15T10:28:12.961Z,2.59
2022-12-15T10:29:12.938Z,2.84
2022-12-15T10:30:12.976Z,3.18
2022-12-15T10:31:12.942Z,3.58
2022-12-15T10:32:12.895Z,3.71
2022-12-15T10:33:12.905Z,3.97
2022-12-15T10:34:12.958Z,4.22
2022-12-15T10:35:12.868Z,4.37
2022-12-15T10:36:12.849Z,4.57
2022-12-15T10:37:12.847Z,4.59
2022-12-15T10:38:12.829Z,4.76
2022-12-15T10:39:14.461Z,4.73
2022-12-15T10:40:12.831Z,4.44
2022-12-15T10:41:12.800Z,4.51
2022-12-15T10:42:12.796Z,4.29
2022-12-15T10:43:12.780Z,4.67
2022-12-15T10:44:12.759Z,4.73
2022-12-15T10:45:12.779Z,4.91
2022-12-15T10:46:12.789Z,4.89
2022-12-15T10:47:12.739Z,4.98
2022-12-15T10:48:12.721Z,5.25
2022-12-15T10:49:12.720Z,5.57
2022-12-15T10:50:12.699Z,5.46
2022-12-15T10:51:12.718Z,5.46
2022-12-15T10:52:12.679Z,5.45
2022-12-15T10:53:12.669Z,5.50
2022-12-15T10:54:12.661Z,5.78
2022-12-15T10:55:12.674Z,5.96
2022-12-15T10:56:12.639Z,6.10
2022-12-15T10:57:12.627Z,5.96
2022-12-15T10:58:12.609Z,5.95
2022-12-15T10:59:12.600Z,5.91
2022-12-15T11:00:12.619Z,5.92
2022-12-15T11:01:12.611Z,5.86
2022-12-15T11:02:15.606Z,6.13
2022-12-15T11:03:13.704Z,6.19
2022-12-15T11:04:12.577Z,6.43
2022-12-15T11:05:12.570Z,6.48
2022-12-15T11:06:12.528Z,6.44
2022-12-15T11:07:12.549Z,6.16
2022-12-15T11:08:12.507Z,6.47
2022-12-15T11:09:12.502Z,6.61
2022-12-15T11:10:12.479Z,6.76
2022-12-15T11:11:12.480Z,6.56
2022-12-15T11:12:12.496Z,6.84
2022-12-15T11:13:12.459Z,6.99
2022-12-15T11:14:12.439Z,7.29
2022-12-15T11:15:12.431Z,7.17
2022-12-15T11:16:12.424Z,7.38
2022-12-15T11:17:12.417Z,7.72
2022-12-15T11:18:12.438Z,7.23
2022-12-15T11:19:12.387Z,7.09
2022-12-15T11:20:12.381Z,7.04
2022-12-15T11:21:12.366Z,6.99
2022-12-15T11:22:12.350Z,6.84
2022-12-15T11:23:12.351Z,6.76
2022-12-15T11:24:12.361Z,6.79
2022-12-15T11:25:12.332Z,6.63
2022-12-15T11:26:12.310Z,6.73
2022-12-15T11:27:12.311Z,7.04
2022-12-15T11:28:12.310Z,7.02
2022-12-15T11:29:12.281Z,6.80
2022-12-15T11:30:12.270Z,6.50
2022-12-15T11:31:12.280Z,6.32
2022-12-15T11:32:12.248Z,6.33
2022-12-15T11:33:12.248Z,6.53
2022-12-15T11:34:12.251Z,6.66
2022-12-15T11:35:12.221Z,6.86
2022-12-15T11:36:12.212Z,7.12
2022-12-15T11:37:12.200Z,6.97
2022-12-15T11:38:12.192Z,6.81
2022-12-15T11:39:12.278Z,6.84
2022-12-15T11:40:12.168Z,7.12
2022-12-15T11:41:12.151Z,7.05
2022-12-15T11:42:12.150Z,7.22
2022-12-15T11:43:12.140Z,7.34
2022-12-15T11:44:12.142Z,7.27
2022-12-15T11:45:12.119Z,7.24
2022-12-15T11:46:12.129Z,7.15
2022-12-15T11:47:12.099Z,7.19
2022-12-15T11:48:12.085Z,7.41
2022-12-15T11:49:12.071Z,7.67
2022-12-15T11:50:12.064Z,7.63
2022-12-15T11:51:12.051Z,7.71
2022-12-15T11:52:12.061Z,7.99
2022-12-15T11:53:12.032Z,7.97
2022-12-15T11:54:12.043Z,7.93
2022-12-15T11:55:12.010Z,7.62
2022-12-15T11:56:12.002Z,7.78
2022-12-15T11:57:11.991Z,8.10
2022-12-15T11:58:11.979Z,8.15
2022-12-15T11:59:11.982Z,8.42
2022-12-15T12:00:11.952Z,8.50
2022-12-15T12:01:11.949Z,8.28
2022-12-15T12:02:12.013Z,8.21
2022-12-15T12:03:11.947Z,8.48
2022-12-15T12:04:11.942Z,8.65
2022-12-15T12:05:11.910Z,8.72
2022-12-15T12:06:11.884Z,8.90
2022-12-15T12:07:11.891Z,8.90
2022-12-15T12:08:11.867Z,9.15
2022-12-15T12:09:11.851Z,8.99
2022-12-15T12:10:11.876Z,9.05
2022-12-15T12:11:11.918Z,8.66
2022-12-15T12:12:11.827Z,8.68
2022-12-15T12:13:11.814Z,8.47
2022-12-15T12:14:12.126Z,8.75
2022-12-15T12:15:11.814Z,8.55
2022-12-15T12:16:11.807Z,8.84
2022-12-15T12:17:11.765Z,9.09
2022-12-15T12:18:11.753Z,9.42
2022-12-15T12:19:11.820Z,9.67
2022-12-15T12:20:11.762Z,9.64
2022-12-15T12:21:11.762Z,9.76
2022-12-15T12:22:11.712Z,9.91
2022-12-15T12:23:11.704Z,9.91
2022-12-15T12:24:11.690Z,10.09
2022-12-15T12:25:11.683Z,10.24
2022-12-15T12:26:11.663Z,10.37
2022-12-15T12:27:11.682Z,10.52
2022-12-15T12:28:11.650Z,10.51
2022-12-15T12:29:11.635Z,10.34
2022-12-15T12:30:11.619Z,10.32
2022-12-15T12:31:11.635Z,10.39
2022-12-15T12:32:11.603Z,10.55
2022-12-15T12:33:11.592Z,10.68
2022-12-15T12:34:11.576Z,10.81
2022-12-15T12:35:30.316Z,10.89
2022-12-15T12:36:12.573Z,10.17
2022-12-15T12:37:11.563Z,10.15
2022-12-15T12:38:11.545Z,9.73
2022-12-15T12:39:11.520Z,9.81
2022-12-15T12:40:11.511Z,9.85
2022-12-15T12:41:11.494Z,9.63
2022-12-15T12:42:11.484Z,9.35
2022-12-15T12:43:14.215Z,9.30
2022-12-15T12:44:11.463Z,9.31
2022-12-15T12:45:11.455Z,9.56
2022-12-15T12:46:11.441Z,9.70
2022-12-15T12:47:11.435Z,9.46
2022-12-15T12:48:11.445Z,9.39
2022-12-15T12:49:11.408Z,9.50
2022-12-15T12:50:11.404Z,9.40
2022-12-15T12:51:11.394Z,9.63
2022-12-15T12:52:11.375Z,9.78
2022-12-15T12:53:11.391Z,9.96
2022-12-15T12:54:11.374Z,9.97
2022-12-15T12:55:14.426Z,9.88
2022-12-15T12:56:11.332Z,9.61
2022-12-15T12:57:11.322Z,9.34
2022-12-15T12:58:11.307Z,9.20
2022-12-15T12:59:11.326Z,8.93